sensor_id;sensor_type;location;lat;lon;timestamp;P1;durP1;ratioP1;P2;durP2;ratioP2
21014;SDS011;19207;-23.482;-46.500;2022-08-11T00:01:59;4.80;;;1.62;;
21014;SDS011;19207;-23.482;-46.500;2022-08-11T00:04:46;7.70;;;1.60;;
21014;SDS011;19207;-23.482;-46.500;2022-08-11T00:07:33;6.55;;;1.80;;
21014;SDS011;19207;-23.482;-46.500;2022-08-11T00:10:22;3.60;;;1.58;;
21014;SDS011;19207;-23.482;-46.500;2022-08-11T00:13:09;5.15;;;1.70;;
21014;SDS011;19207;-23.482;-46.500;2022-08-11T00:15:56;4.03;;;1.62;;
21014;SDS011;19207;-23.482;-46.500;2022-08-11T00:18:44;2.83;;;1.40;;
21014;SDS011;19207;-23.482;-46.500;2022-08-11T00:21:30;4.07;;;1.70;;
21014;SDS011;19207;-23.482;-46.500;2022-08-11T00:24:24;8.27;;;1.40;;
21014;SDS011;19207;-23.482;-46.500;2022-08-11T00:27:17;2.87;;;1.10;;
21014;SDS011;19207;-23.482;-46.500;2022-08-11T00:30:03;3.30;;;1.40;;
21014;SDS011;19207;-23.482;-46.500;2022-08-11T00:32:54;2.53;;;1.30;;
21014;SDS011;19207;-23.482;-46.500;2022-08-11T00:35:42;7.32;;;1.67;;
21014;SDS011;19207;-23.482;-46.500;2022-08-11T00:38:31;5.50;;;1.50;;
21014;SDS011;19207;-23.482;-46.500;2022-08-11T01:01:57;4.65;;;1.90;;
21014;SDS011;19207;-23.482;-46.500;2022-08-11T01:10:47;3.10;;;1.80;;
21014;SDS011;19207;-23.482;-46.500;2022-08-11T01:34:49;3.45;;;2.20;;
21014;SDS011;19207;-23.482;-46.500;2022-08-11T01:38:01;4.85;;;2.35;;
21014;SDS011;19207;-23.482;-46.500;2022-08-11T01:50:38;4.25;;;2.70;;
21014;SDS011;19207;-23.482;-46.500;2022-08-11T01:59:40;3.62;;;2.20;;
21014;SDS011;19207;-23.482;-46.500;2022-08-11T02:02:39;7.07;;;2.20;;
21014;SDS011;19207;-23.482;-46.500;2022-08-11T02:11:31;4.72;;;2.10;;
21014;SDS011;19207;-23.482;-46.500;2022-08-11T02:20:17;3.00;;;1.85;;
21014;SDS011;19207;-23.482;-46.500;2022-08-11T02:23:31;4.12;;;2.22;;
21014;SDS011;19207;-23.482;-46.500;2022-08-11T02:26:30;2.92;;;1.77;;
21014;SDS011;19207;-23.482;-46.500;2022-08-11T02:32:45;2.90;;;1.85;;
21014;SDS011;19207;-23.482;-46.500;2022-08-11T02:36:07;2.28;;;1.73;;
21014;SDS011;19207;-23.482;-46.500;2022-08-11T02:39:11;2.78;;;1.48;;
21014;SDS011;19207;-23.482;-46.500;2022-08-11T02:42:04;3.42;;;1.50;;
21014;SDS011;19207;-23.482;-46.500;2022-08-11T02:45:11;2.33;;;1.60;;
21014;SDS011;19207;-23.482;-46.500;2022-08-11T02:53:58;3.10;;;2.10;;
21014;SDS011;19207;-23.482;-46.500;2022-08-11T03:05:36;2.50;;;1.50;;
21014;SDS011;19207;-23.482;-46.500;2022-08-11T03:14:47;5.72;;;2.22;;
21014;SDS011;19207;-23.482;-46.500;2022-08-11T03:20:45;4.22;;;2.28;;
21014;SDS011;19207;-23.482;-46.500;2022-08-11T03:23:37;3.53;;;1.83;;
21014;SDS011;19207;-23.482;-46.500;2022-08-11T03:26:30;2.80;;;1.50;;
21014;SDS011;19207;-23.482;-46.500;2022-08-11T03:32:39;2.80;;;1.60;;
21014;SDS011;19207;-23.482;-46.500;2022-08-11T03:35:27;1.65;;;1.17;;
21014;SDS011;19207;-23.482;-46.500;2022-08-11T03:38:14;2.80;;;1.50;;
21014;SDS011;19207;-23.482;-46.500;2022-08-11T03:44:32;3.45;;;1.92;;
21014;SDS011;19207;-23.482;-46.500;2022-08-11T03:47:42;3.67;;;1.90;;
21014;SDS011;19207;-23.482;-46.500;2022-08-11T03:50:46;3.42;;;1.92;;
21014;SDS011;19207;-23.482;-46.500;2022-08-11T04:05:46;3.97;;;2.10;;
21014;SDS011;19207;-23.482;-46.500;2022-08-11T04:08:54;5.65;;;1.80;;
21014;SDS011;19207;-23.482;-46.500;2022-08-11T04:12:02;2.33;;;1.20;;
21014;SDS011;19207;-23.482;-46.500;2022-08-11T04:15:07;5.30;;;1.45;;
21014;SDS011;19207;-23.482;-46.500;2022-08-11T04:18:24;2.05;;;1.40;;
21014;SDS011;19207;-23.482;-46.500;2022-08-11T04:21:39;1.98;;;1.40;;
21014;SDS011;19207;-23.482;-46.500;2022-08-11T04:30:27;3.83;;;1.00;;
21014;SDS011;19207;-23.482;-46.500;2022-08-11T05:04:35;3.50;;;1.15;;
21014;SDS011;19207;-23.482;-46.500;2022-08-11T05:17:12;0.88;;;0.70;;
21014;SDS011;19207;-23.482;-46.500;2022-08-11T05:20:17;0.75;;;0.60;;
21014;SDS011;19207;-23.482;-46.500;2022-08-11T05:23:24;1.10;;;0.90;;
21014;SDS011;19207;-23.482;-46.500;2022-08-11T05:26:34;0.80;;;0.80;;
21014;SDS011;19207;-23.482;-46.500;2022-08-11T05:29:46;0.90;;;0.70;;
21014;SDS011;19207;-23.482;-46.500;2022-08-11T05:39:01;1.27;;;1.05;;
21014;SDS011;19207;-23.482;-46.500;2022-08-11T05:42:06;2.33;;;1.25;;
21014;SDS011;19207;-23.482;-46.500;2022-08-11T05:45:12;2.33;;;1.60;;
21014;SDS011;19207;-23.482;-46.500;2022-08-11T05:48:17;2.10;;;1.37;;
21014;SDS011;19207;-23.482;-46.500;2022-08-11T05:51:23;2.00;;;1.40;;
21014;SDS011;19207;-23.482;-46.500;2022-08-11T05:54:36;2.65;;;1.70;;
21014;SDS011;19207;-23.482;-46.500;2022-08-11T05:57:41;2.12;;;1.52;;
21014;SDS011;19207;-23.482;-46.500;2022-08-11T06:00:28;2.60;;;1.75;;
21014;SDS011;19207;-23.482;-46.500;2022-08-11T06:03:24;3.10;;;2.05;;
21014;SDS011;19207;-23.482;-46.500;2022-08-11T06:06:11;5.57;;;3.22;;
21014;SDS011;19207;-23.482;-46.500;2022-08-11T06:08:58;5.00;;;2.92;;
21014;SDS011;19207;-23.482;-46.500;2022-08-11T06:11:45;3.40;;;2.30;;
21014;SDS011;19207;-23.482;-46.500;2022-08-11T06:14:32;4.03;;;2.50;;
21014;SDS011;19207;-23.482;-46.500;2022-08-11T06:17:22;4.45;;;3.00;;
21014;SDS011;19207;-23.482;-46.500;2022-08-11T06:20:10;4.85;;;2.83;;
21014;SDS011;19207;-23.482;-46.500;2022-08-11T06:22:58;7.18;;;2.72;;
21014;SDS011;19207;-23.482;-46.500;2022-08-11T06:25:49;4.47;;;2.80;;
21014;SDS011;19207;-23.482;-46.500;2022-08-11T06:28:36;6.95;;;3.53;;
21014;SDS011;19207;-23.482;-46.500;2022-08-11T06:31:23;6.62;;;4.50;;
21014;SDS011;19207;-23.482;-46.500;2022-08-11T06:34:11;5.18;;;3.47;;
21014;SDS011;19207;-23.482;-46.500;2022-08-11T06:37:18;7.03;;;3.72;;
21014;SDS011;19207;-23.482;-46.500;2022-08-11T06:43:25;6.97;;;3.62;;
21014;SDS011;19207;-23.482;-46.500;2022-08-11T06:46:14;5.68;;;3.30;;
21014;SDS011;19207;-23.482;-46.500;2022-08-11T06:49:03;6.68;;;3.67;;
21014;SDS011;19207;-23.482;-46.500;2022-08-11T06:51:52;5.82;;;3.80;;
21014;SDS011;19207;-23.482;-46.500;2022-08-11T06:54:42;7.05;;;3.87;;
21014;SDS011;19207;-23.482;-46.500;2022-08-11T06:57:30;7.97;;;4.05;;
21014;SDS011;19207;-23.482;-46.500;2022-08-11T07:00:35;6.10;;;3.92;;
21014;SDS011;19207;-23.482;-46.500;2022-08-11T07:03:22;8.65;;;4.57;;
21014;SDS011;19207;-23.482;-46.500;2022-08-11T07:15:08;5.93;;;3.90;;
21014;SDS011;19207;-23.482;-46.500;2022-08-11T07:18:20;6.95;;;4.22;;
21014;SDS011;19207;-23.482;-46.500;2022-08-11T07:21:51;7.72;;;4.30;;
21014;SDS011;19207;-23.482;-46.500;2022-08-11T07:24:59;7.05;;;4.45;;
21014;SDS011;19207;-23.482;-46.500;2022-08-11T07:28:06;9.00;;;4.37;;
21014;SDS011;19207;-23.482;-46.500;2022-08-11T07:31:15;8.80;;;5.05;;
21014;SDS011;19207;-23.482;-46.500;2022-08-11T07:36:57;7.62;;;5.18;;
21014;SDS011;19207;-23.482;-46.500;2022-08-11T07:39:44;10.10;;;5.62;;
21014;SDS011;19207;-23.482;-46.500;2022-08-11T07:42:31;11.98;;;6.05;;
21014;SDS011;19207;-23.482;-46.500;2022-08-11T07:45:22;10.48;;;5.97;;
21014;SDS011;19207;-23.482;-46.500;2022-08-11T07:48:27;10.63;;;6.35;;
21014;SDS011;19207;-23.482;-46.500;2022-08-11T07:51:32;10.23;;;6.00;;
21014;SDS011;19207;-23.482;-46.500;2022-08-11T07:54:38;10.15;;;5.90;;
21014;SDS011;19207;-23.482;-46.500;2022-08-11T07:57:25;10.35;;;6.35;;
21014;SDS011;19207;-23.482;-46.500;2022-08-11T08:00:38;12.52;;;5.95;;
21014;SDS011;19207;-23.482;-46.500;2022-08-11T08:03:43;10.85;;;5.18;;
21014;SDS011;19207;-23.482;-46.500;2022-08-11T08:06:48;9.43;;;5.22;;
21014;SDS011;19207;-23.482;-46.500;2022-08-11T08:09:53;9.50;;;5.07;;
21014;SDS011;19207;-23.482;-46.500;2022-08-11T08:12:58;10.57;;;5.15;;
21014;SDS011;19207;-23.482;-46.500;2022-08-11T08:16:04;10.23;;;5.50;;
21014;SDS011;19207;-23.482;-46.500;2022-08-11T08:19:10;8.70;;;4.80;;
21014;SDS011;19207;-23.482;-46.500;2022-08-11T08:21:58;10.60;;;5.78;;
21014;SDS011;19207;-23.482;-46.500;2022-08-11T08:24:45;12.30;;;5.43;;
21014;SDS011;19207;-23.482;-46.500;2022-08-11T08:27:32;12.85;;;6.00;;
21014;SDS011;19207;-23.482;-46.500;2022-08-11T08:30:19;13.35;;;6.07;;
21014;SDS011;19207;-23.482;-46.500;2022-08-11T08:33:25;11.80;;;5.97;;
21014;SDS011;19207;-23.482;-46.500;2022-08-11T08:36:12;10.10;;;6.20;;
21014;SDS011;19207;-23.482;-46.500;2022-08-11T08:38:59;13.02;;;6.37;;
21014;SDS011;19207;-23.482;-46.500;2022-08-11T08:41:48;15.65;;;7.00;;
21014;SDS011;19207;-23.482;-46.500;2022-08-11T08:44:34;13.40;;;6.82;;
21014;SDS011;19207;-23.482;-46.500;2022-08-11T08:47:21;11.32;;;6.60;;
21014;SDS011;19207;-23.482;-46.500;2022-08-11T08:50:11;15.00;;;6.75;;
21014;SDS011;19207;-23.482;-46.500;2022-08-11T08:52:59;14.57;;;6.72;;
21014;SDS011;19207;-23.482;-46.500;2022-08-11T08:55:48;15.88;;;7.30;;
21014;SDS011;19207;-23.482;-46.500;2022-08-11T08:58:35;12.90;;;6.28;;
21014;SDS011;19207;-23.482;-46.500;2022-08-11T09:01:22;15.27;;;6.53;;
21014;SDS011;19207;-23.482;-46.500;2022-08-11T09:04:09;13.02;;;6.90;;
21014;SDS011;19207;-23.482;-46.500;2022-08-11T09:06:57;12.23;;;6.05;;
21014;SDS011;19207;-23.482;-46.500;2022-08-11T09:09:51;16.67;;;6.70;;
21014;SDS011;19207;-23.482;-46.500;2022-08-11T09:12:38;12.07;;;6.40;;
21014;SDS011;19207;-23.482;-46.500;2022-08-11T09:15:26;11.23;;;6.60;;
21014;SDS011;19207;-23.482;-46.500;2022-08-11T09:18:12;14.57;;;7.15;;
21014;SDS011;19207;-23.482;-46.500;2022-08-11T09:21:02;12.60;;;5.95;;
21014;SDS011;19207;-23.482;-46.500;2022-08-11T09:23:49;10.68;;;4.28;;
21014;SDS011;19207;-23.482;-46.500;2022-08-11T09:26:55;5.90;;;3.22;;
21014;SDS011;19207;-23.482;-46.500;2022-08-11T09:29:48;5.95;;;3.37;;
21014;SDS011;19207;-23.482;-46.500;2022-08-11T09:32:35;6.87;;;2.78;;
21014;SDS011;19207;-23.482;-46.500;2022-08-11T09:35:25;8.80;;;3.10;;
21014;SDS011;19207;-23.482;-46.500;2022-08-11T09:38:13;7.32;;;2.87;;
21014;SDS011;19207;-23.482;-46.500;2022-08-11T09:41:19;9.32;;;3.33;;
21014;SDS011;19207;-23.482;-46.500;2022-08-11T09:44:06;6.62;;;3.10;;
21014;SDS011;19207;-23.482;-46.500;2022-08-11T09:47:16;6.55;;;3.12;;
21014;SDS011;19207;-23.482;-46.500;2022-08-11T09:50:03;8.60;;;3.47;;
21014;SDS011;19207;-23.482;-46.500;2022-08-11T09:52:50;4.78;;;3.05;;
21014;SDS011;19207;-23.482;-46.500;2022-08-11T09:55:37;6.45;;;2.97;;
21014;SDS011;19207;-23.482;-46.500;2022-08-11T09:58:24;10.82;;;3.50;;
21014;SDS011;19207;-23.482;-46.500;2022-08-11T10:01:10;8.93;;;3.50;;
21014;SDS011;19207;-23.482;-46.500;2022-08-11T10:04:15;7.70;;;3.62;;
21014;SDS011;19207;-23.482;-46.500;2022-08-11T10:07:02;5.85;;;3.08;;
21014;SDS011;19207;-23.482;-46.500;2022-08-11T10:09:51;9.18;;;3.67;;
21014;SDS011;19207;-23.482;-46.500;2022-08-11T10:12:41;9.43;;;3.62;;
21014;SDS011;19207;-23.482;-46.500;2022-08-11T10:15:31;6.87;;;3.40;;
21014;SDS011;19207;-23.482;-46.500;2022-08-11T10:18:28;10.85;;;3.90;;
21014;SDS011;19207;-23.482;-46.500;2022-08-11T10:21:38;11.88;;;3.55;;
21014;SDS011;19207;-23.482;-46.500;2022-08-11T10:24:25;12.18;;;3.87;;
21014;SDS011;19207;-23.482;-46.500;2022-08-11T10:27:30;12.98;;;4.00;;
21014;SDS011;19207;-23.482;-46.500;2022-08-11T10:30:16;11.35;;;3.90;;
21014;SDS011;19207;-23.482;-46.500;2022-08-11T10:33:21;11.75;;;3.90;;
21014;SDS011;19207;-23.482;-46.500;2022-08-11T10:36:36;12.60;;;4.20;;
21014;SDS011;19207;-23.482;-46.500;2022-08-11T10:39:28;13.88;;;4.53;;
21014;SDS011;19207;-23.482;-46.500;2022-08-11T10:42:15;12.82;;;4.57;;
21014;SDS011;19207;-23.482;-46.500;2022-08-11T10:45:20;14.52;;;4.10;;
21014;SDS011;19207;-23.482;-46.500;2022-08-11T10:48:27;12.57;;;3.87;;
21014;SDS011;19207;-23.482;-46.500;2022-08-11T10:51:13;9.82;;;3.85;;
21014;SDS011;19207;-23.482;-46.500;2022-08-11T10:54:01;9.30;;;4.22;;
21014;SDS011;19207;-23.482;-46.500;2022-08-11T10:57:05;12.98;;;4.15;;
21014;SDS011;19207;-23.482;-46.500;2022-08-11T11:00:11;13.77;;;3.92;;
21014;SDS011;19207;-23.482;-46.500;2022-08-11T11:03:00;8.13;;;4.18;;
21014;SDS011;19207;-23.482;-46.500;2022-08-11T11:05:47;10.45;;;3.20;;
21014;SDS011;19207;-23.482;-46.500;2022-08-11T11:08:34;11.18;;;3.95;;
21014;SDS011;19207;-23.482;-46.500;2022-08-11T11:11:38;8.85;;;3.17;;
21014;SDS011;19207;-23.482;-46.500;2022-08-11T11:14:43;8.38;;;2.83;;
21014;SDS011;19207;-23.482;-46.500;2022-08-11T11:18:07;9.05;;;3.08;;
21014;SDS011;19207;-23.482;-46.500;2022-08-11T11:35:46;17.62;;;3.70;;
21014;SDS011;19207;-23.482;-46.500;2022-08-11T11:38:34;12.05;;;2.65;;
21014;SDS011;19207;-23.482;-46.500;2022-08-11T11:41:22;7.70;;;2.20;;
21014;SDS011;19207;-23.482;-46.500;2022-08-11T11:44:10;6.50;;;2.00;;
21014;SDS011;19207;-23.482;-46.500;2022-08-11T11:46:57;12.37;;;2.35;;
21014;SDS011;19207;-23.482;-46.500;2022-08-11T11:49:45;11.55;;;1.87;;
21014;SDS011;19207;-23.482;-46.500;2022-08-11T11:52:33;13.85;;;2.10;;
21014;SDS011;19207;-23.482;-46.500;2022-08-11T11:55:23;15.70;;;2.17;;
21014;SDS011;19207;-23.482;-46.500;2022-08-11T11:58:10;9.90;;;2.45;;
21014;SDS011;19207;-23.482;-46.500;2022-08-11T12:01:15;10.82;;;2.00;;
21014;SDS011;19207;-23.482;-46.500;2022-08-11T12:04:09;9.68;;;2.00;;
21014;SDS011;19207;-23.482;-46.500;2022-08-11T12:06:56;10.98;;;2.50;;
21014;SDS011;19207;-23.482;-46.500;2022-08-11T12:10:03;9.77;;;2.42;;
21014;SDS011;19207;-23.482;-46.500;2022-08-11T12:12:49;10.35;;;2.67;;
21014;SDS011;19207;-23.482;-46.500;2022-08-11T12:15:55;14.00;;;2.10;;
21014;SDS011;19207;-23.482;-46.500;2022-08-11T12:18:52;15.65;;;2.00;;
21014;SDS011;19207;-23.482;-46.500;2022-08-11T12:21:39;10.82;;;2.17;;
21014;SDS011;19207;-23.482;-46.500;2022-08-11T12:24:44;9.90;;;1.80;;
21014;SDS011;19207;-23.482;-46.500;2022-08-11T12:27:51;9.38;;;1.98;;
21014;SDS011;19207;-23.482;-46.500;2022-08-11T12:30:38;7.85;;;1.70;;
21014;SDS011;19207;-23.482;-46.500;2022-08-11T12:33:24;12.48;;;2.42;;
21014;SDS011;19207;-23.482;-46.500;2022-08-11T12:36:11;6.90;;;1.83;;
21014;SDS011;19207;-23.482;-46.500;2022-08-11T12:38:59;2.90;;;1.40;;
21014;SDS011;19207;-23.482;-46.500;2022-08-11T12:41:47;23.73;;;3.45;;
21014;SDS011;19207;-23.482;-46.500;2022-08-11T12:44:52;8.35;;;2.10;;
21014;SDS011;19207;-23.482;-46.500;2022-08-11T12:51:07;11.70;;;3.37;;
21014;SDS011;19207;-23.482;-46.500;2022-08-11T12:54:13;8.02;;;2.80;;
21014;SDS011;19207;-23.482;-46.500;2022-08-11T12:57:09;10.02;;;2.70;;
21014;SDS011;19207;-23.482;-46.500;2022-08-11T13:00:16;17.62;;;2.55;;
21014;SDS011;19207;-23.482;-46.500;2022-08-11T13:03:21;7.10;;;1.90;;
21014;SDS011;19207;-23.482;-46.500;2022-08-11T13:06:26;9.77;;;2.28;;
21014;SDS011;19207;-23.482;-46.500;2022-08-11T13:09:12;10.50;;;2.20;;
21014;SDS011;19207;-23.482;-46.500;2022-08-11T13:11:59;10.65;;;2.40;;
21014;SDS011;19207;-23.482;-46.500;2022-08-11T13:15:03;4.00;;;2.20;;
21014;SDS011;19207;-23.482;-46.500;2022-08-11T13:17:50;7.20;;;2.20;;
21014;SDS011;19207;-23.482;-46.500;2022-08-11T13:20:37;11.63;;;1.77;;
21014;SDS011;19207;-23.482;-46.500;2022-08-11T13:23:23;5.97;;;1.80;;
21014;SDS011;19207;-23.482;-46.500;2022-08-11T13:26:11;5.45;;;1.60;;
21014;SDS011;19207;-23.482;-46.500;2022-08-11T13:28:57;3.78;;;1.40;;
21014;SDS011;19207;-23.482;-46.500;2022-08-11T13:31:44;4.80;;;1.80;;
21014;SDS011;19207;-23.482;-46.500;2022-08-11T13:34:30;8.75;;;1.70;;
21014;SDS011;19207;-23.482;-46.500;2022-08-11T13:37:17;4.30;;;1.50;;
21014;SDS011;19207;-23.482;-46.500;2022-08-11T13:40:04;5.07;;;1.70;;
21014;SDS011;19207;-23.482;-46.500;2022-08-11T13:42:51;3.08;;;1.17;;
21014;SDS011;19207;-23.482;-46.500;2022-08-11T13:45:37;5.12;;;1.30;;
21014;SDS011;19207;-23.482;-46.500;2022-08-11T13:48:24;5.57;;;1.33;;
21014;SDS011;19207;-23.482;-46.500;2022-08-11T13:51:12;7.72;;;1.50;;
21014;SDS011;19207;-23.482;-46.500;2022-08-11T13:54:17;6.80;;;1.25;;
21014;SDS011;19207;-23.482;-46.500;2022-08-11T13:57:05;6.12;;;1.30;;
21014;SDS011;19207;-23.482;-46.500;2022-08-11T13:59:52;5.68;;;1.30;;
21014;SDS011;19207;-23.482;-46.500;2022-08-11T14:02:56;5.62;;;1.40;;
21014;SDS011;19207;-23.482;-46.500;2022-08-11T14:05:48;4.93;;;1.00;;
21014;SDS011;19207;-23.482;-46.500;2022-08-11T14:08:37;7.18;;;1.50;;
21014;SDS011;19207;-23.482;-46.500;2022-08-11T14:11:23;8.57;;;1.55;;
21014;SDS011;19207;-23.482;-46.500;2022-08-11T14:14:30;3.40;;;1.40;;
21014;SDS011;19207;-23.482;-46.500;2022-08-11T14:17:17;5.68;;;1.45;;
21014;SDS011;19207;-23.482;-46.500;2022-08-11T14:20:05;6.00;;;1.67;;
21014;SDS011;19207;-23.482;-46.500;2022-08-11T14:22:53;4.97;;;1.90;;
21014;SDS011;19207;-23.482;-46.500;2022-08-11T14:25:40;6.70;;;1.52;;
21014;SDS011;19207;-23.482;-46.500;2022-08-11T14:28:46;6.60;;;1.60;;
21014;SDS011;19207;-23.482;-46.500;2022-08-11T14:31:33;4.20;;;1.60;;
21014;SDS011;19207;-23.482;-46.500;2022-08-11T14:34:24;5.68;;;1.60;;
21014;SDS011;19207;-23.482;-46.500;2022-08-11T14:37:12;14.70;;;1.77;;
21014;SDS011;19207;-23.482;-46.500;2022-08-11T14:40:00;5.47;;;2.00;;
21014;SDS011;19207;-23.482;-46.500;2022-08-11T14:43:06;5.90;;;1.40;;
21014;SDS011;19207;-23.482;-46.500;2022-08-11T14:46:11;3.58;;;1.30;;
21014;SDS011;19207;-23.482;-46.500;2022-08-11T14:49:16;4.35;;;1.20;;
21014;SDS011;19207;-23.482;-46.500;2022-08-11T14:52:03;6.90;;;1.92;;
21014;SDS011;19207;-23.482;-46.500;2022-08-11T14:54:52;4.57;;;1.40;;
21014;SDS011;19207;-23.482;-46.500;2022-08-11T14:57:57;10.52;;;1.90;;
21014;SDS011;19207;-23.482;-46.500;2022-08-11T15:00:44;5.32;;;1.90;;
21014;SDS011;19207;-23.482;-46.500;2022-08-11T15:03:31;9.25;;;1.80;;
21014;SDS011;19207;-23.482;-46.500;2022-08-11T15:06:19;5.00;;;1.62;;
21014;SDS011;19207;-23.482;-46.500;2022-08-11T15:09:05;4.70;;;1.30;;
21014;SDS011;19207;-23.482;-46.500;2022-08-11T15:11:52;6.80;;;1.50;;
21014;SDS011;19207;-23.482;-46.500;2022-08-11T15:15:04;7.80;;;1.30;;
21014;SDS011;19207;-23.482;-46.500;2022-08-11T15:18:12;9.60;;;1.42;;
21014;SDS011;19207;-23.482;-46.500;2022-08-11T15:21:03;7.32;;;1.73;;
21014;SDS011;19207;-23.482;-46.500;2022-08-11T15:24:07;6.65;;;1.30;;
21014;SDS011;19207;-23.482;-46.500;2022-08-11T15:27:10;9.15;;;1.40;;
21014;SDS011;19207;-23.482;-46.500;2022-08-11T15:30:16;5.28;;;1.50;;
21014;SDS011;19207;-23.482;-46.500;2022-08-11T15:33:21;8.73;;;1.55;;
21014;SDS011;19207;-23.482;-46.500;2022-08-11T15:36:26;7.68;;;1.35;;
21014;SDS011;19207;-23.482;-46.500;2022-08-11T15:39:37;6.57;;;1.35;;
21014;SDS011;19207;-23.482;-46.500;2022-08-11T15:42:56;5.60;;;1.20;;
21014;SDS011;19207;-23.482;-46.500;2022-08-11T15:46:05;4.25;;;1.30;;
21014;SDS011;19207;-23.482;-46.500;2022-08-11T15:48:57;5.72;;;1.62;;
21014;SDS011;19207;-23.482;-46.500;2022-08-11T15:51:45;4.75;;;1.50;;
21014;SDS011;19207;-23.482;-46.500;2022-08-11T15:54:32;7.57;;;1.60;;
21014;SDS011;19207;-23.482;-46.500;2022-08-11T15:57:19;7.20;;;1.50;;
21014;SDS011;19207;-23.482;-46.500;2022-08-11T16:00:24;5.95;;;1.67;;
21014;SDS011;19207;-23.482;-46.500;2022-08-11T16:03:28;6.32;;;1.85;;
21014;SDS011;19207;-23.482;-46.500;2022-08-11T16:06:41;6.12;;;1.60;;
21014;SDS011;19207;-23.482;-46.500;2022-08-11T16:09:37;4.75;;;1.27;;
21014;SDS011;19207;-23.482;-46.500;2022-08-11T16:12:25;7.25;;;1.85;;
21014;SDS011;19207;-23.482;-46.500;2022-08-11T16:15:13;8.02;;;1.35;;
21014;SDS011;19207;-23.482;-46.500;2022-08-11T16:18:21;4.60;;;1.40;;
21014;SDS011;19207;-23.482;-46.500;2022-08-11T16:21:34;19.17;;;1.73;;
21014;SDS011;19207;-23.482;-46.500;2022-08-11T16:24:23;7.70;;;1.70;;
21014;SDS011;19207;-23.482;-46.500;2022-08-11T16:27:11;6.72;;;1.42;;
21014;SDS011;19207;-23.482;-46.500;2022-08-11T16:29:58;4.53;;;1.67;;
21014;SDS011;19207;-23.482;-46.500;2022-08-11T16:32:46;5.50;;;1.37;;
21014;SDS011;19207;-23.482;-46.500;2022-08-11T16:35:37;3.90;;;1.20;;
21014;SDS011;19207;-23.482;-46.500;2022-08-11T16:38:43;5.53;;;1.52;;
21014;SDS011;19207;-23.482;-46.500;2022-08-11T16:41:30;4.37;;;1.85;;
21014;SDS011;19207;-23.482;-46.500;2022-08-11T16:44:34;5.35;;;2.28;;
21014;SDS011;19207;-23.482;-46.500;2022-08-11T16:47:40;5.40;;;1.70;;
21014;SDS011;19207;-23.482;-46.500;2022-08-11T16:50:27;5.68;;;1.70;;
21014;SDS011;19207;-23.482;-46.500;2022-08-11T16:53:14;4.37;;;1.40;;
21014;SDS011;19207;-23.482;-46.500;2022-08-11T16:56:03;6.35;;;1.55;;
21014;SDS011;19207;-23.482;-46.500;2022-08-11T16:58:52;4.70;;;1.83;;
21014;SDS011;19207;-23.482;-46.500;2022-08-11T17:02:01;5.32;;;1.30;;
21014;SDS011;19207;-23.482;-46.500;2022-08-11T17:04:50;5.65;;;1.80;;
21014;SDS011;19207;-23.482;-46.500;2022-08-11T17:07:57;5.22;;;1.42;;
21014;SDS011;19207;-23.482;-46.500;2022-08-11T17:11:04;8.05;;;3.35;;
21014;SDS011;19207;-23.482;-46.500;2022-08-11T17:14:20;3.85;;;1.65;;
21014;SDS011;19207;-23.482;-46.500;2022-08-11T17:17:11;6.72;;;1.80;;
21014;SDS011;19207;-23.482;-46.500;2022-08-11T17:20:00;5.03;;;2.00;;
21014;SDS011;19207;-23.482;-46.500;2022-08-11T17:22:47;5.53;;;1.75;;
21014;SDS011;19207;-23.482;-46.500;2022-08-11T17:25:53;4.45;;;1.67;;
21014;SDS011;19207;-23.482;-46.500;2022-08-11T17:28:39;4.93;;;1.30;;
21014;SDS011;19207;-23.482;-46.500;2022-08-11T17:31:26;6.47;;;1.55;;
21014;SDS011;19207;-23.482;-46.500;2022-08-11T17:34:32;6.32;;;1.83;;
21014;SDS011;19207;-23.482;-46.500;2022-08-11T17:37:36;6.07;;;1.55;;
21014;SDS011;19207;-23.482;-46.500;2022-08-11T17:40:23;5.43;;;1.80;;
21014;SDS011;19207;-23.482;-46.500;2022-08-11T17:43:10;5.55;;;1.58;;
21014;SDS011;19207;-23.482;-46.500;2022-08-11T17:46:15;5.62;;;1.48;;
21014;SDS011;19207;-23.482;-46.500;2022-08-11T17:49:19;5.05;;;2.00;;
21014;SDS011;19207;-23.482;-46.500;2022-08-11T17:52:06;10.00;;;1.92;;
21014;SDS011;19207;-23.482;-46.500;2022-08-11T17:55:12;7.37;;;2.20;;
21014;SDS011;19207;-23.482;-46.500;2022-08-11T17:58:17;5.35;;;1.77;;
21014;SDS011;19207;-23.482;-46.500;2022-08-11T18:01:22;10.07;;;1.85;;
21014;SDS011;19207;-23.482;-46.500;2022-08-11T18:04:10;6.10;;;1.70;;
21014;SDS011;19207;-23.482;-46.500;2022-08-11T18:06:58;13.23;;;2.40;;
21014;SDS011;19207;-23.482;-46.500;2022-08-11T18:09:45;6.18;;;1.90;;
21014;SDS011;19207;-23.482;-46.500;2022-08-11T18:13:01;7.32;;;2.03;;
21014;SDS011;19207;-23.482;-46.500;2022-08-11T18:16:08;6.07;;;2.47;;
21014;SDS011;19207;-23.482;-46.500;2022-08-11T18:19:13;6.78;;;2.03;;
21014;SDS011;19207;-23.482;-46.500;2022-08-11T18:22:21;8.57;;;1.90;;
21014;SDS011;19207;-23.482;-46.500;2022-08-11T18:25:27;12.55;;;2.97;;
21014;SDS011;19207;-23.482;-46.500;2022-08-11T18:28:38;8.32;;;2.67;;
21014;SDS011;19207;-23.482;-46.500;2022-08-11T18:31:46;7.70;;;1.98;;
21014;SDS011;19207;-23.482;-46.500;2022-08-11T18:34:51;11.98;;;2.30;;
21014;SDS011;19207;-23.482;-46.500;2022-08-11T18:37:58;13.07;;;2.35;;
21014;SDS011;19207;-23.482;-46.500;2022-08-11T18:41:04;13.95;;;2.40;;
21014;SDS011;19207;-23.482;-46.500;2022-08-11T18:44:10;9.30;;;2.30;;
21014;SDS011;19207;-23.482;-46.500;2022-08-11T18:47:16;12.50;;;2.80;;
21014;SDS011;19207;-23.482;-46.500;2022-08-11T18:50:23;6.43;;;2.10;;
21014;SDS011;19207;-23.482;-46.500;2022-08-11T18:53:27;9.63;;;2.58;;
21014;SDS011;19207;-23.482;-46.500;2022-08-11T18:56:32;9.93;;;2.60;;
21014;SDS011;19207;-23.482;-46.500;2022-08-11T18:59:37;14.38;;;2.97;;
21014;SDS011;19207;-23.482;-46.500;2022-08-11T19:02:43;12.98;;;2.50;;
21014;SDS011;19207;-23.482;-46.500;2022-08-11T19:05:49;11.73;;;2.50;;
21014;SDS011;19207;-23.482;-46.500;2022-08-11T19:08:56;10.95;;;2.87;;
21014;SDS011;19207;-23.482;-46.500;2022-08-11T19:12:02;11.12;;;2.45;;
21014;SDS011;19207;-23.482;-46.500;2022-08-11T19:15:07;12.50;;;2.10;;
21014;SDS011;19207;-23.482;-46.500;2022-08-11T19:18:14;7.35;;;1.80;;
21014;SDS011;19207;-23.482;-46.500;2022-08-11T19:21:19;8.07;;;1.73;;
21014;SDS011;19207;-23.482;-46.500;2022-08-11T19:24:24;8.52;;;2.22;;
21014;SDS011;19207;-23.482;-46.500;2022-08-11T19:27:30;11.80;;;2.00;;
21014;SDS011;19207;-23.482;-46.500;2022-08-11T19:30:35;10.35;;;2.10;;
21014;SDS011;19207;-23.482;-46.500;2022-08-11T19:33:40;12.52;;;2.60;;
21014;SDS011;19207;-23.482;-46.500;2022-08-11T19:36:44;13.80;;;2.50;;
21014;SDS011;19207;-23.482;-46.500;2022-08-11T19:39:51;12.27;;;3.40;;
21014;SDS011;19207;-23.482;-46.500;2022-08-11T19:42:56;10.75;;;2.30;;
21014;SDS011;19207;-23.482;-46.500;2022-08-11T19:46:00;14.13;;;2.17;;
21014;SDS011;19207;-23.482;-46.500;2022-08-11T19:49:05;6.28;;;2.03;;
21014;SDS011;19207;-23.482;-46.500;2022-08-11T19:52:09;10.75;;;2.30;;
21014;SDS011;19207;-23.482;-46.500;2022-08-11T19:55:14;8.10;;;1.77;;
21014;SDS011;19207;-23.482;-46.500;2022-08-11T19:58:19;16.58;;;2.20;;
21014;SDS011;19207;-23.482;-46.500;2022-08-11T20:01:23;10.98;;;2.17;;
21014;SDS011;19207;-23.482;-46.500;2022-08-11T20:04:28;13.02;;;2.53;;
21014;SDS011;19207;-23.482;-46.500;2022-08-11T20:07:32;14.87;;;2.37;;
21014;SDS011;19207;-23.482;-46.500;2022-08-11T20:10:37;12.52;;;2.33;;
21014;SDS011;19207;-23.482;-46.500;2022-08-11T20:13:43;4.93;;;1.70;;
21014;SDS011;19207;-23.482;-46.500;2022-08-11T20:16:50;11.25;;;1.60;;
21014;SDS011;19207;-23.482;-46.500;2022-08-11T20:19:55;6.85;;;2.15;;
21014;SDS011;19207;-23.482;-46.500;2022-08-11T20:23:02;7.78;;;2.10;;